Time;durP1;ratioP1;P1;durP2;ratioP2;P2;SDS_P1;SDS_P2;PMS_P1;PMS_P2;Temp;Humidity;BMP_temperature;BMP_pressure;BME280_temperature;BME280_humidity;BME280_pressure;Samples;Min_cycle;Max_cycle;Signal;HPM_P1;HPM_P2
2022/01/30 00:00:35;;;;;;;30.90;4.55;;;8.50;99.90;;;;;;5064282;28;20207;-78
2022/01/30 00:03:01;;;;;;;22.35;4.20;;;8.60;99.90;;;;;;5072805;28;20253;-78
2022/01/30 00:05:28;;;;;;;20.73;4.22;;;8.50;99.90;;;;;;5053481;28;20298;-86
2022/01/30 00:07:54;;;;;;;14.88;3.72;;;8.60;99.90;;;;;;5054373;28;20171;-82
2022/01/30 00:10:19;;;;;;;15.52;3.30;;;8.50;99.90;;;;;;5054903;28;20178;-79
2022/01/30 00:12:52;;;;;;;25.90;3.78;;;8.40;99.90;;;;;;5053466;28;20187;-80
2022/01/30 00:15:23;;;;;;;19.77;4.20;;;8.30;99.90;;;;;;5053404;28;20167;-81
2022/01/30 00:18:05;;;;;;;24.73;4.85;;;8.20;99.90;;;;;;5054761;28;20723;-80
2022/01/30 00:20:33;;;;;;;26.95;5.28;;;8.10;99.90;;;;;;5052230;28;20173;-79
2022/01/30 00:23:10;;;;;;;24.17;4.38;;;8.10;99.90;;;;;;5054140;28;20205;-78
2022/01/30 00:25:48;;;;;;;16.95;4.88;;;8.10;99.90;;;;;;5054310;28;20274;-78
2022/01/30 00:28:15;;;;;;;24.02;4.82;;;8.00;99.90;;;;;;5054767;28;20183;-82
2022/01/30 00:30:41;;;;;;;22.75;4.10;;;8.10;99.90;;;;;;5054510;28;20164;-83
2022/01/30 00:33:06;;;;;;;24.48;4.30;;;8.00;99.90;;;;;;5054253;28;20191;-78
2022/01/30 00:35:38;;;;;;;27.40;5.03;;;8.00;99.90;;;;;;5054567;28;20163;-78
2022/01/30 00:38:06;;;;;;;20.23;4.00;;;8.10;99.90;;;;;;5054551;28;20175;-81
2022/01/30 00:40:32;;;;;;;22.08;3.65;;;8.00;99.90;;;;;;5054390;28;20166;-78
2022/01/30 00:42:57;;;;;;;20.67;4.32;;;8.10;99.90;;;;;;5054403;28;20237;-80
2022/01/30 00:45:23;;;;;;;17.92;4.40;;;8.00;99.90;;;;;;5054011;28;20551;-78
2022/01/30 00:47:49;;;;;;;15.35;3.58;;;8.00;99.90;;;;;;5054352;28;20304;-82
2022/01/30 00:50:14;;;;;;;14.35;3.80;;;8.00;99.90;;;;;;5054091;28;20163;-79
2022/01/30 00:52:40;;;;;;;15.80;4.63;;;8.00;99.90;;;;;;5054563;28;20210;-78
2022/01/30 00:55:06;;;;;;;26.48;4.70;;;7.90;99.90;;;;;;5058621;28;20176;-82
2022/01/30 00:57:31;;;;;;;15.00;3.75;;;8.00;99.90;;;;;;5055993;28;20167;-78
2022/01/30 00:59:57;;;;;;;21.80;4.25;;;8.00;99.90;;;;;;5057080;28;20193;-78
2022/01/30 01:02:23;;;;;;;16.85;4.43;;;7.90;99.90;;;;;;5055407;28;20690;-77
2022/01/30 01:04:48;;;;;;;22.38;3.90;;;7.90;99.90;;;;;;5055301;28;20167;-78
2022/01/30 01:07:19;;;;;;;21.25;4.28;;;8.10;99.90;;;;;;5055027;28;20206;-78
2022/01/30 01:09:55;;;;;;;23.08;4.03;;;7.90;99.90;;;;;;5055296;28;20164;-78
2022/01/30 01:20:59;;;;;;;21.75;3.17;;;8.40;99.90;;;;;;5055378;28;20186;-78
2022/01/30 01:25:57;;;;;;;17.27;4.15;;;7.90;99.90;;;;;;5055291;28;20225;-77
2022/01/30 01:28:23;;;;;;;17.58;3.35;;;7.80;99.90;;;;;;5053599;28;20700;-78
2022/01/30 01:30:49;;;;;;;25.70;3.70;;;7.80;99.90;;;;;;5054200;28;20553;-77
2022/01/30 01:33:16;;;;;;;16.15;3.33;;;7.80;99.90;;;;;;5054336;28;20194;-78
2022/01/30 01:35:41;;;;;;;14.68;4.20;;;7.80;99.90;;;;;;5054541;28;20163;-78
2022/01/30 01:38:13;;;;;;;17.48;3.17;;;7.90;99.90;;;;;;5054200;28;20159;-78
2022/01/30 01:40:55;;;;;;;22.05;3.90;;;8.00;99.90;;;;;;5054737;28;20167;-77
2022/01/30 01:43:23;;;;;;;16.00;3.60;;;8.00;99.90;;;;;;5055531;28;20232;-81
2022/01/30 01:45:51;;;;;;;11.88;3.50;;;7.90;99.90;;;;;;5053260;28;20228;-82
2022/01/30 01:48:18;;;;;;;21.45;4.18;;;7.90;99.90;;;;;;5055251;28;20232;-79
2022/01/30 01:50:52;;;;;;;25.50;4.10;;;8.00;99.90;;;;;;5055421;28;20210;-79
2022/01/30 01:53:22;;;;;;;21.35;3.22;;;7.70;99.90;;;;;;5054675;28;20186;-78
2022/01/30 01:55:48;;;;;;;18.70;3.45;;;7.40;99.90;;;;;;5055242;28;20225;-82
2022/01/30 01:58:14;;;;;;;19.77;3.25;;;7.30;99.90;;;;;;5057221;28;20163;-77
2022/01/30 02:00:40;;;;;;;17.77;3.67;;;7.20;99.90;;;;;;5058086;28;20167;-78
2022/01/30 02:03:05;;;;;;;20.20;3.60;;;7.20;99.90;;;;;;5063286;28;20269;-80
2022/01/30 02:05:34;;;;;;;16.90;3.45;;;7.20;99.90;;;;;;5062095;28;20195;-83
2022/01/30 02:08:49;;;;;;;17.20;3.10;;;7.10;99.90;;;;;;5069374;28;20167;-82
2022/01/30 02:10:58;;;;;;;5.20;2.25;;;7.20;99.90;;;;;;5066087;28;20175;-79
2022/01/30 02:27:37;;;;;;;7.60;2.20;;;7.00;99.90;;;;;;5056355;28;20270;-78
2022/01/30 02:30:08;;;;;;;9.18;2.28;;;7.00;99.90;;;;;;5056041;28;20202;-78
2022/01/30 02:32:34;;;;;;;10.73;3.45;;;6.90;99.90;;;;;;5055004;28;20210;-78
2022/01/30 02:34:59;;;;;;;9.38;2.88;;;6.90;99.90;;;;;;5053820;28;20624;-78
2022/01/30 02:37:25;;;;;;;20.25;3.40;;;6.90;99.90;;;;;;5054933;28;20163;-78
2022/01/30 02:39:51;;;;;;;20.45;3.00;;;7.10;99.90;;;;;;5055196;28;20167;-77
2022/01/30 02:42:20;;;;;;;21.83;3.88;;;7.00;99.90;;;;;;5054324;28;20329;-78
2022/01/30 02:44:54;;;;;;;22.42;3.75;;;6.90;99.90;;;;;;5058408;28;20259;-78
2022/01/30 02:47:25;;;;;;;11.63;2.67;;;6.90;99.90;;;;;;5058625;28;20259;-78
2022/01/30 02:50:14;;;;;;;23.75;3.47;;;6.80;99.90;;;;;;5058945;28;20165;-78
2022/01/30 02:52:42;;;;;;;21.20;2.95;;;6.80;99.90;;;;;;5058762;28;20274;-78
2022/01/30 02:55:09;;;;;;;9.52;3.08;;;7.00;99.90;;;;;;5057532;28;20167;-78
2022/01/30 02:57:35;;;;;;;15.35;3.42;;;7.00;99.90;;;;;;5058447;28;20766;-78
2022/01/30 03:00:01;;;;;;;38.17;4.40;;;6.80;99.90;;;;;;5058058;28;20262;-77
2022/01/30 03:02:27;;;;;;;18.88;3.47;;;6.70;99.90;;;;;;5058788;28;20187;-78
2022/01/30 03:04:52;;;;;;;15.80;3.58;;;6.70;99.90;;;;;;5059075;28;20650;-78
2022/01/30 03:07:18;;;;;;;18.45;3.50;;;6.80;99.90;;;;;;5058520;28;20241;-78
2022/01/30 03:09:44;;;;;;;17.25;3.38;;;6.90;99.90;;;;;;5059247;28;20185;-79
2022/01/30 03:12:10;;;;;;;18.63;3.47;;;6.90;99.90;;;;;;5059600;28;20221;-78
2022/01/30 03:14:35;;;;;;;13.88;2.85;;;6.90;99.90;;;;;;5059566;28;20624;-77
2022/01/30 03:17:02;;;;;;;17.73;3.53;;;7.00;99.90;;;;;;5058941;28;20254;-78
2022/01/30 03:19:28;;;;;;;16.08;3.03;;;7.10;99.90;;;;;;5057405;28;20675;-77
2022/01/30 03:21:53;;;;;;;19.65;4.47;;;7.20;99.90;;;;;;5059151;28;20203;-78
2022/01/30 03:24:19;;;;;;;11.15;3.58;;;7.20;99.90;;;;;;5057794;28;20178;-78
2022/01/30 03:26:44;;;;;;;16.98;3.97;;;6.90;99.90;;;;;;5058386;28;20207;-78
2022/01/30 03:29:10;;;;;;;30.77;5.45;;;6.80;99.90;;;;;;5057954;28;20199;-77
2022/01/30 03:31:38;;;;;;;8.48;2.90;;;6.80;99.90;;;;;;5058326;28;20187;-77
2022/01/30 03:34:11;;;;;;;18.65;2.55;;;6.60;99.90;;;;;;5058116;28;20185;-78
2022/01/30 03:36:37;;;;;;;19.38;4.18;;;6.50;99.90;;;;;;5058385;28;20167;-78
2022/01/30 03:39:03;;;;;;;13.75;2.70;;;6.70;99.90;;;;;;5057315;28;20167;-78
2022/01/30 03:41:29;;;;;;;27.63;4.18;;;6.60;99.90;;;;;;5058237;28;20678;-79
2022/01/30 03:43:55;;;;;;;24.35;3.85;;;6.60;99.90;;;;;;5056646;28;20163;-78
2022/01/30 03:46:22;;;;;;;14.90;3.00;;;6.50;99.90;;;;;;5058022;28;20261;-79
2022/01/30 03:48:48;;;;;;;21.67;3.72;;;6.60;99.90;;;;;;5059267;28;20172;-79
2022/01/30 03:51:14;;;;;;;17.67;3.95;;;6.70;99.90;;;;;;5061188;28;20203;-78
2022/01/30 03:53:40;;;;;;;11.05;3.63;;;6.90;99.90;;;;;;5058076;28;20216;-78
2022/01/30 03:56:06;;;;;;;9.50;2.50;;;6.80;99.90;;;;;;5057764;28;20199;-77
2022/01/30 03:58:33;;;;;;;13.40;3.17;;;6.80;99.90;;;;;;5057111;28;20187;-78
2022/01/30 04:00:59;;;;;;;24.88;3.45;;;6.70;99.90;;;;;;5057983;28;20640;-78
2022/01/30 04:03:25;;;;;;;18.65;3.15;;;6.70;99.90;;;;;;5058243;28;20182;-79
2022/01/30 04:05:51;;;;;;;20.83;3.75;;;6.60;99.90;;;;;;5057748;28;20210;-78
2022/01/30 04:08:17;;;;;;;14.13;2.92;;;6.30;99.90;;;;;;5057017;28;20183;-77
2022/01/30 04:10:43;;;;;;;17.75;3.88;;;6.30;99.90;;;;;;5071913;28;20169;-79
2022/01/30 04:13:09;;;;;;;26.73;3.75;;;6.50;99.90;;;;;;5071101;28;20274;-78
2022/01/30 04:15:35;;;;;;;16.05;3.90;;;6.60;99.90;;;;;;5058566;28;20266;-78
2022/01/30 04:18:02;;;;;;;14.05;2.55;;;6.60;99.90;;;;;;5058369;28;20167;-78
2022/01/30 04:20:28;;;;;;;21.13;3.78;;;6.40;99.90;;;;;;5057331;28;20221;-78
2022/01/30 04:22:54;;;;;;;19.38;3.90;;;6.50;99.90;;;;;;5059518;28;20194;-78
2022/01/30 04:25:20;;;;;;;19.73;3.83;;;6.50;99.90;;;;;;5058481;28;20643;-78
2022/01/30 04:27:46;;;;;;;11.93;3.50;;;6.30;99.90;;;;;;5058107;28;20178;-77
2022/01/30 04:30:14;;;;;;;11.52;2.65;;;6.20;99.90;;;;;;5057899;28;20195;-78
2022/01/30 04:32:43;;;;;;;16.13;3.72;;;6.20;99.90;;;;;;5057991;28;20187;-78
2022/01/30 04:35:20;;;;;;;13.18;2.67;;;6.20;99.90;;;;;;5058629;28;20155;-81
2022/01/30 04:41:00;;;;;;;15.45;3.22;;;6.10;99.90;;;;;;5058063;28;20646;-77
2022/01/30 05:02:38;;;;;;;18.15;4.88;;;6.10;99.90;;;;;;5053907;28;20214;-78
2022/01/30 05:09:50;;;;;;;14.43;3.55;;;6.00;99.90;;;;;;5053928;28;20167;-82
2022/01/30 05:12:16;;;;;;;16.50;3.65;;;5.90;99.90;;;;;;5053879;28;20191;-78
2022/01/30 05:14:42;;;;;;;16.50;3.47;;;5.80;99.90;;;;;;5054151;28;20646;-77
2022/01/30 05:17:08;;;;;;;15.48;3.58;;;5.60;99.90;;;;;;5054092;28;20172;-79
2022/01/30 05:19:34;;;;;;;9.07;2.33;;;5.60;99.90;;;;;;5053650;28;20174;-80
2022/01/30 05:22:00;;;;;;;16.35;3.20;;;5.80;99.90;;;;;;5053635;28;20282;-82
2022/01/30 05:24:26;;;;;;;18.73;2.58;;;5.70;99.90;;;;;;5053213;28;20589;-82
2022/01/30 05:26:52;;;;;;;17.33;2.83;;;5.90;99.90;;;;;;5053550;28;20285;-80
2022/01/30 05:29:18;;;;;;;23.00;3.50;;;6.00;99.90;;;;;;5053484;28;20208;-78
2022/01/30 05:31:44;;;;;;;10.25;2.85;;;6.00;99.90;;;;;;5053697;28;20179;-78
2022/01/30 05:34:10;;;;;;;16.33;3.15;;;6.00;99.90;;;;;;5053981;28;20242;-80
2022/01/30 05:36:40;;;;;;;15.63;2.40;;;6.00;99.90;;;;;;5052522;28;20167;-80
2022/01/30 05:39:06;;;;;;;14.35;3.75;;;5.70;99.90;;;;;;5053437;28;20266;-79
2022/01/30 05:41:33;;;;;;;17.88;4.28;;;5.60;99.90;;;;;;5053378;28;20274;-80
2022/01/30 05:44:08;;;;;;;30.15;3.50;;;5.80;99.90;;;;;;5052206;28;20185;-77
2022/01/30 05:46:49;;;;;;;12.05;3.17;;;6.00;99.90;;;;;;5053114;28;20194;-86
2022/01/30 05:49:15;;;;;;;17.83;3.58;;;6.10;99.90;;;;;;5052013;28;20662;-80
2022/01/30 05:51:41;;;;;;;10.40;2.85;;;5.90;99.90;;;;;;5051619;28;20194;-78
2022/01/30 05:54:07;;;;;;;15.02;2.70;;;5.70;99.90;;;;;;5052968;28;20167;-78
2022/01/30 05:56:34;;;;;;;18.90;3.67;;;5.80;99.90;;;;;;5052764;28;20601;-80
2022/01/30 05:59:00;;;;;;;13.45;3.38;;;5.80;99.90;;;;;;5051719;28;20198;-78
2022/01/30 06:01:26;;;;;;;26.23;3.35;;;6.00;99.90;;;;;;5052544;28;20187;-77
2022/01/30 06:03:52;;;;;;;18.08;4.10;;;5.80;99.90;;;;;;5052820;28;20177;-77
2022/01/30 06:06:17;;;;;;;19.45;3.50;;;5.80;99.90;;;;;;5051223;28;20202;-78
2022/01/30 06:08:58;;;;;;;16.15;2.60;;;5.70;99.90;;;;;;5053087;28;20227;-78
2022/01/30 06:11:24;;;;;;;13.52;3.15;;;5.60;99.90;;;;;;5051700;28;20717;-79
2022/01/30 06:13:49;;;;;;;14.30;3.30;;;5.60;99.90;;;;;;5052660;28;20159;-79
2022/01/30 06:16:15;;;;;;;12.07;3.03;;;5.50;99.90;;;;;;5051635;28;20179;-78
2022/01/30 06:18:40;;;;;;;17.75;3.25;;;5.60;99.90;;;;;;5054683;28;20155;-78
2022/01/30 06:21:06;;;;;;;16.67;2.50;;;5.80;99.90;;;;;;5056847;28;20197;-78
2022/01/30 06:23:32;;;;;;;21.67;3.28;;;5.70;99.90;;;;;;5056993;28;20245;-78
2022/01/30 06:25:58;;;;;;;21.30;3.65;;;5.70;99.90;;;;;;5057244;28;20663;-78
2022/01/30 06:28:23;;;;;;;31.45;4.15;;;5.80;99.90;;;;;;5056124;28;20532;-79
2022/01/30 06:30:49;;;;;;;15.10;3.25;;;5.90;99.90;;;;;;5057576;28;20181;-79
2022/01/30 06:33:15;;;;;;;14.10;3.25;;;6.10;99.90;;;;;;5067862;28;20206;-80
2022/01/30 06:35:41;;;;;;;20.40;4.07;;;6.00;99.90;;;;;;5074538;28;20155;-79
2022/01/30 06:38:06;;;;;;;12.98;3.33;;;5.90;99.90;;;;;;5078038;28;20189;-76
2022/01/30 06:40:32;;;;;;;13.65;3.72;;;6.00;99.90;;;;;;5076069;28;20175;-77
2022/01/30 06:42:57;;;;;;;17.60;4.38;;;6.10;99.90;;;;;;5078051;28;20202;-77
2022/01/30 06:45:23;;;;;;;25.20;4.43;;;6.00;99.90;;;;;;5068090;28;20262;-79
2022/01/30 06:47:51;;;;;;;13.02;3.30;;;5.80;99.90;;;;;;5056092;28;20186;-77
2022/01/30 06:50:17;;;;;;;14.75;3.47;;;5.90;99.90;;;;;;5056480;28;20164;-78
2022/01/30 06:52:43;;;;;;;11.20;3.22;;;6.00;99.90;;;;;;5056024;28;20282;-78
2022/01/30 06:55:10;;;;;;;9.65;3.22;;;6.00;99.90;;;;;;5055977;28;20166;-78
2022/01/30 06:57:42;;;;;;;17.42;3.20;;;5.90;99.90;;;;;;5054066;28;20617;-78
2022/01/30 07:00:08;;;;;;;21.25;2.92;;;6.00;99.90;;;;;;5055440;28;20256;-80
2022/01/30 07:02:33;;;;;;;11.50;3.60;;;5.80;99.90;;;;;;5054180;28;20249;-81
2022/01/30 07:04:59;;;;;;;17.27;3.08;;;5.80;99.90;;;;;;5055385;28;20163;-77
2022/01/30 07:07:25;;;;;;;19.25;3.63;;;5.90;99.90;;;;;;5055204;28;20217;-78
2022/01/30 07:09:51;;;;;;;14.82;3.92;;;6.00;99.90;;;;;;5055502;28;20155;-78
2022/01/30 07:12:16;;;;;;;7.90;2.80;;;5.90;99.90;;;;;;5055286;28;20194;-77
2022/01/30 07:14:42;;;;;;;16.77;3.75;;;5.80;99.90;;;;;;5055442;28;20160;-78
2022/01/30 07:17:07;;;;;;;21.80;3.05;;;5.70;99.90;;;;;;5056674;28;20572;-79
2022/01/30 07:19:33;;;;;;;14.27;2.35;;;5.70;99.90;;;;;;5056145;28;20538;-78
2022/01/30 07:21:59;;;;;;;8.88;3.45;;;5.70;99.90;;;;;;5055257;28;20573;-78
2022/01/30 07:24:24;;;;;;;12.38;3.15;;;5.60;99.90;;;;;;5057581;28;20171;-80
2022/01/30 07:26:50;;;;;;;11.20;2.65;;;5.90;99.90;;;;;;5056758;28;20199;-81
2022/01/30 07:29:16;;;;;;;23.35;4.22;;;6.10;99.90;;;;;;5054983;28;20622;-83
2022/01/30 07:31:42;;;;;;;19.95;3.85;;;6.00;99.90;;;;;;5054898;28;20214;-76
2022/01/30 07:34:08;;;;;;;12.65;3.75;;;5.80;99.90;;;;;;5055302;28;20616;-78
2022/01/30 07:36:35;;;;;;;23.45;8.77;;;5.70;99.90;;;;;;5053790;28;20183;-78
2022/01/30 07:39:02;;;;;;;53.78;22.75;;;5.60;99.90;;;;;;5055375;28;20174;-82
2022/01/30 07:41:28;;;;;;;95.47;43.95;;;5.60;99.90;;;;;;5055251;28;20187;-79
2022/01/30 07:43:53;;;;;;;93.10;39.42;;;5.60;99.90;;;;;;5054053;28;20175;-78
2022/01/30 07:46:19;;;;;;;38.35;19.88;;;5.70;99.90;;;;;;5054757;28;20284;-79
2022/01/30 07:48:45;;;;;;;23.25;8.70;;;6.00;99.90;;;;;;5054967;28;20246;-78
2022/01/30 07:51:10;;;;;;;19.98;6.50;;;5.90;99.90;;;;;;5054772;28;20632;-77
2022/01/30 07:53:36;;;;;;;26.42;6.63;;;6.00;99.90;;;;;;5054997;28;20575;-79
2022/01/30 07:56:02;;;;;;;18.63;5.53;;;6.00;99.90;;;;;;5055262;28;20155;-78
2022/01/30 07:58:28;;;;;;;19.23;5.85;;;5.90;99.90;;;;;;5055003;28;20246;-81
2022/01/30 08:00:54;;;;;;;25.35;5.28;;;5.90;99.90;;;;;;5053823;28;20209;-78
2022/01/30 08:03:19;;;;;;;17.50;4.40;;;6.00;99.90;;;;;;5053313;28;20187;-83
2022/01/30 08:05:45;;;;;;;12.55;4.22;;;6.00;99.90;;;;;;5054898;28;20201;-78
2022/01/30 08:08:10;;;;;;;30.75;4.68;;;6.00;99.90;;;;;;5054433;28;20940;-77
2022/01/30 08:10:36;;;;;;;12.70;4.80;;;6.00;99.90;;;;;;5054594;28;20167;-77
2022/01/30 08:13:03;;;;;;;11.15;4.55;;;6.00;99.90;;;;;;5036257;28;20352;-80
2022/01/30 08:15:29;;;;;;;12.50;3.20;;;6.00;99.90;;;;;;5054702;28;20199;-77
2022/01/30 08:17:54;;;;;;;33.30;5.18;;;6.10;99.90;;;;;;5054686;28;20619;-81
2022/01/30 08:20:21;;;;;;;12.50;3.03;;;6.50;99.90;;;;;;5054576;28;20655;-78
2022/01/30 08:22:52;;;;;;;16.95;4.68;;;6.60;99.90;;;;;;5053834;28;20666;-79
2022/01/30 08:25:19;;;;;;;16.13;3.10;;;6.60;99.90;;;;;;5053954;28;20170;-78
2022/01/30 08:27:45;;;;;;;23.40;4.57;;;6.50;99.90;;;;;;5054181;28;20202;-78
2022/01/30 08:30:11;;;;;;;21.95;4.10;;;6.50;99.90;;;;;;5053713;28;20163;-78
2022/01/30 08:32:45;;;;;;;15.30;3.50;;;6.70;99.90;;;;;;5053359;28;20600;-78
2022/01/30 08:35:14;;;;;;;25.52;4.10;;;7.00;99.90;;;;;;5053693;28;20194;-78
2022/01/30 08:37:40;;;;;;;10.38;3.45;;;7.30;99.90;;;;;;5053549;28;20742;-78
2022/01/30 08:40:09;;;;;;;21.35;4.45;;;7.40;99.90;;;;;;5051403;28;20677;-76
2022/01/30 08:42:35;;;;;;;12.40;3.53;;;7.30;99.90;;;;;;5053982;28;20601;-75
2022/01/30 08:45:01;;;;;;;18.17;3.47;;;7.00;99.90;;;;;;5053649;28;20191;-76
2022/01/30 08:47:27;;;;;;;5.70;3.03;;;6.70;99.90;;;;;;5051504;28;20233;-77
2022/01/30 08:49:53;;;;;;;16.45;3.85;;;6.60;99.90;;;;;;5054363;28;20190;-88
2022/01/30 08:52:19;;;;;;;15.20;3.30;;;6.70;99.90;;;;;;5054143;28;20614;-76
2022/01/30 08:54:52;;;;;;;14.18;3.70;;;6.90;99.90;;;;;;5052641;28;20176;-76
2022/01/30 08:57:18;;;;;;;22.75;4.13;;;7.00;99.90;;;;;;5053310;28;20185;-75
2022/01/30 08:59:44;;;;;;;12.43;3.22;;;7.00;99.90;;;;;;5053325;28;20201;-76
2022/01/30 09:02:09;;;;;;;21.90;4.85;;;7.10;99.90;;;;;;5052871;28;20218;-77
2022/01/30 09:04:35;;;;;;;19.77;3.58;;;7.30;99.90;;;;;;5053130;28;20213;-76
2022/01/30 09:07:01;;;;;;;19.45;4.05;;;7.30;99.90;;;;;;5051670;28;20218;-77
2022/01/30 09:09:27;;;;;;;14.00;3.30;;;7.10;99.90;;;;;;5053474;28;20170;-77
2022/01/30 09:11:53;;;;;;;15.25;4.07;;;7.10;99.90;;;;;;5053414;28;20552;-78
2022/01/30 09:14:18;;;;;;;15.98;3.72;;;7.00;99.90;;;;;;5053385;28;20198;-76
2022/01/30 09:16:47;;;;;;;13.27;3.65;;;7.00;99.90;;;;;;5051838;28;20569;-77
2022/01/30 09:19:13;;;;;;;21.52;4.43;;;7.10;99.90;;;;;;5053255;28;20163;-77
2022/01/30 09:21:38;;;;;;;10.02;3.47;;;7.00;99.90;;;;;;5053094;28;20611;-78
2022/01/30 09:24:04;;;;;;;11.68;3.35;;;6.80;99.90;;;;;;5053060;28;20170;-77
2022/01/30 09:26:30;;;;;;;18.70;3.88;;;6.90;99.90;;;;;;5053180;28;20337;-77
2022/01/30 09:28:55;;;;;;;21.55;3.63;;;7.00;99.90;;;;;;5052956;28;20160;-76
2022/01/30 09:31:22;;;;;;;19.77;4.55;;;7.20;99.90;;;;;;5053001;28;20238;-78
2022/01/30 09:33:47;;;;;;;15.18;3.42;;;7.30;99.90;;;;;;5053344;28;20198;-77
2022/01/30 09:36:14;;;;;;;10.38;3.47;;;7.30;99.90;;;;;;5055577;28;20175;-78
2022/01/30 09:38:40;;;;;;;25.17;4.25;;;7.30;99.90;;;;;;5054725;28;20176;-77
2022/01/30 09:41:08;;;;;;;14.52;3.88;;;6.90;99.90;;;;;;5054875;28;20181;-78
2022/01/30 09:43:34;;;;;;;21.88;4.10;;;6.90;99.90;;;;;;5053153;28;20159;-78
2022/01/30 09:46:01;;;;;;;13.55;3.80;;;6.90;99.90;;;;;;5059295;28;20651;-78
2022/01/30 09:48:27;;;;;;;26.00;3.88;;;7.10;99.90;;;;;;5054774;28;20175;-77
2022/01/30 09:50:54;;;;;;;13.43;4.13;;;7.20;99.90;;;;;;5053264;28;20166;-79
2022/01/30 09:53:20;;;;;;;27.92;4.43;;;7.20;99.90;;;;;;5053839;28;20266;-78
2022/01/30 09:55:47;;;;;;;12.27;4.20;;;7.10;99.90;;;;;;5057331;28;20213;-77
2022/01/30 09:58:12;;;;;;;12.95;3.53;;;7.10;99.90;;;;;;5063972;28;20527;-79
2022/01/30 10:00:38;;;;;;;14.32;3.88;;;7.20;99.90;;;;;;5062939;28;20150;-78
2022/01/30 10:03:05;;;;;;;14.35;3.92;;;7.20;99.90;;;;;;5064751;28;20676;-78
2022/01/30 10:05:35;;;;;;;17.50;3.65;;;7.20;99.90;;;;;;5058559;28;20381;-79
2022/01/30 10:08:02;;;;;;;13.45;3.03;;;7.30;99.90;;;;;;5059675;28;20184;-78
2022/01/30 10:10:29;;;;;;;17.08;3.55;;;7.20;99.90;;;;;;5057357;28;20155;-80
2022/01/30 10:13:02;;;;;;;16.35;4.00;;;7.20;99.90;;;;;;5066529;28;20324;-79
2022/01/30 10:15:28;;;;;;;16.85;4.68;;;7.30;99.90;;;;;;5061228;28;20624;-79
2022/01/30 10:17:54;;;;;;;12.32;4.13;;;7.40;99.90;;;;;;5060753;28;20217;-79
2022/01/30 10:20:26;;;;;;;20.80;3.65;;;7.30;99.90;;;;;;5059716;28;20206;-82
2022/01/30 10:22:52;;;;;;;12.45;3.88;;;7.30;99.90;;;;;;5052404;28;20203;-82
2022/01/30 10:25:35;;;;;;;11.60;3.83;;;7.40;99.90;;;;;;5052948;28;20179;-77
2022/01/30 10:28:06;;;;;;;21.48;4.93;;;7.50;99.90;;;;;;5052344;28;20606;-79
2022/01/30 10:30:39;;;;;;;10.60;3.83;;;7.60;99.90;;;;;;5052527;28;20191;-77
2022/01/30 10:33:12;;;;;;;16.55;4.03;;;7.60;99.90;;;;;;5054597;28;20569;-77
2022/01/30 10:35:58;;;;;;;14.10;3.47;;;7.70;99.90;;;;;;5057714;28;20171;-79
2022/01/30 10:38:25;;;;;;;16.02;3.83;;;7.80;99.90;;;;;;5052543;28;20198;-82
2022/01/30 10:41:00;;;;;;;19.77;3.97;;;7.90;99.90;;;;;;5054457;28;20570;-88
2022/01/30 10:43:56;;;;;;;13.02;4.30;;;7.80;99.90;;;;;;5054503;28;20178;-88
2022/01/30 10:46:26;;;;;;;29.95;5.88;;;8.00;99.90;;;;;;5055458;28;20199;-95
2022/01/30 10:48:54;;;;;;;16.00;3.38;;;8.20;99.90;;;;;;5055971;28;20159;-95
2022/01/30 10:51:23;;;;;;;16.25;4.13;;;8.20;99.90;;;;;;5074931;28;20247;-93
2022/01/30 10:53:51;;;;;;;20.27;3.97;;;8.20;99.90;;;;;;5058606;28;20217;-79
2022/01/30 10:56:27;;;;;;;10.98;4.00;;;8.20;99.90;;;;;;5054924;28;20187;-77
2022/01/30 10:59:12;;;;;;;11.85;2.85;;;8.20;99.90;;;;;;5061337;28;20159;-76
2022/01/30 11:01:41;;;;;;;28.88;4.53;;;8.30;99.90;;;;;;5069445;28;20246;-76
2022/01/30 11:04:07;;;;;;;16.15;2.60;;;8.20;99.90;;;;;;5074554;28;20182;-76
2022/01/30 11:06:39;;;;;;;15.25;3.58;;;8.20;99.90;;;;;;5074031;28;20274;-77
2022/01/30 11:09:21;;;;;;;12.38;3.33;;;8.50;99.90;;;;;;5070353;28;20159;-78
2022/01/30 11:11:54;;;;;;;24.55;3.28;;;8.80;99.90;;;;;;5068136;28;20191;-77
2022/01/30 11:14:34;;;;;;;19.27;3.75;;;9.10;99.90;;;;;;5066485;28;20285;-77
2022/01/30 11:17:05;;;;;;;18.35;3.72;;;9.20;99.90;;;;;;5064619;28;20170;-76
2022/01/30 11:19:39;;;;;;;17.15;4.05;;;9.40;99.90;;;;;;5061963;28;20164;-77
2022/01/30 11:22:16;;;;;;;17.02;3.42;;;9.50;99.90;;;;;;5057097;28;20206;-77
2022/01/30 11:24:46;;;;;;;21.02;3.42;;;9.50;99.90;;;;;;5055762;28;20205;-77
2022/01/30 11:27:14;;;;;;;23.63;3.63;;;9.50;99.90;;;;;;5061032;28;20215;-79
2022/01/30 11:29:41;;;;;;;19.63;3.85;;;9.50;99.90;;;;;;5063012;28;20174;-78
2022/01/30 11:32:08;;;;;;;18.33;3.30;;;9.60;99.90;;;;;;5057128;28;20199;-78
2022/01/30 11:34:35;;;;;;;19.13;3.20;;;9.60;99.90;;;;;;5055133;28;20246;-77
2022/01/30 11:37:02;;;;;;;22.45;3.25;;;9.60;99.90;;;;;;5056231;28;20167;-76
2022/01/30 11:39:28;;;;;;;13.00;2.63;;;9.60;99.90;;;;;;5064735;28;20178;-77
2022/01/30 11:42:08;;;;;;;19.63;3.70;;;9.50;99.90;;;;;;5061410;28;20191;-79
2022/01/30 11:44:36;;;;;;;16.67;3.38;;;9.40;99.90;;;;;;5065392;28;20171;-78
2022/01/30 11:47:01;;;;;;;17.70;2.70;;;9.30;99.90;;;;;;5063796;28;20214;-76
2022/01/30 11:49:43;;;;;;;15.88;3.45;;;9.10;99.90;;;;;;5063914;28;20183;-78
2022/01/30 11:52:16;;;;;;;15.15;2.83;;;9.20;99.90;;;;;;5070264;28;20195;-78
2022/01/30 11:54:50;;;;;;;25.23;4.15;;;9.10;99.90;;;;;;5068464;28;20151;-79
2022/01/30 11:57:23;;;;;;;11.43;2.85;;;9.30;99.90;;;;;;5065513;28;20167;-79
2022/01/30 11:59:50;;;;;;;15.93;3.95;;;9.30;99.90;;;;;;5064178;28;20167;-79
2022/01/30 12:02:34;;;;;;;17.42;3.40;;;9.30;99.90;;;;;;5067512;28;20822;-81
2022/01/30 12:05:10;;;;;;;16.83;4.40;;;9.10;99.90;;;;;;5063705;28;20193;-85
2022/01/30 12:07:36;;;;;;;21.85;5.55;;;9.10;99.90;;;;;;5065152;28;20202;-77
2022/01/30 12:10:24;;;;;;;22.13;5.85;;;9.20;99.90;;;;;;5062102;28;20197;-78
2022/01/30 12:13:01;;;;;;;21.83;4.10;;;9.20;99.90;;;;;;5064162;28;20529;-78
2022/01/30 12:15:40;;;;;;;21.50;7.10;;;9.20;99.90;;;;;;5063499;28;20167;-78
2022/01/30 12:18:10;;;;;;;32.60;8.75;;;9.50;99.90;;;;;;5066981;28;20186;-78
2022/01/30 12:21:08;;;;;;;31.33;7.85;;;9.60;99.90;;;;;;5058210;28;20650;-77
2022/01/30 12:23:40;;;;;;;20.00;3.92;;;10.00;99.90;;;;;;5058157;28;20171;-76
2022/01/30 12:26:16;;;;;;;12.48;3.47;;;10.00;99.90;;;;;;5055781;28;20214;-76
2022/01/30 12:28:49;;;;;;;28.92;3.92;;;10.00;99.90;;;;;;5059240;28;20175;-77
2022/01/30 12:31:32;;;;;;;27.38;3.15;;;10.00;99.90;;;;;;5056520;28;20178;-77
2022/01/30 12:34:16;;;;;;;24.52;3.15;;;9.90;99.90;;;;;;5058686;28;20171;-76
2022/01/30 12:36:44;;;;;;;4.20;1.70;;;9.90;99.90;;;;;;5057389;28;20235;-77
2022/01/30 12:39:16;;;;;;;15.60;2.85;;;9.70;99.90;;;;;;5057944;28;20191;-77
2022/01/30 12:41:42;;;;;;;17.73;2.47;;;9.80;99.90;;;;;;5056090;28;20215;-76
2022/01/30 12:44:19;;;;;;;16.70;3.17;;;9.80;99.90;;;;;;5059310;28;20197;-79
2022/01/30 12:46:51;;;;;;;11.77;3.13;;;9.80;99.90;;;;;;5057908;28;20202;-77
2022/01/30 12:49:22;;;;;;;12.30;3.00;;;9.80;99.90;;;;;;5058262;28;20167;-76
2022/01/30 12:51:52;;;;;;;13.02;2.45;;;9.90;99.90;;;;;;5057430;28;20190;-76
2022/01/30 12:54:21;;;;;;;22.27;2.80;;;10.20;99.90;;;;;;5055230;28;20171;-77
2022/01/30 12:56:49;;;;;;;12.60;2.63;;;10.40;99.90;;;;;;5057749;28;20262;-76
2022/01/30 12:59:16;;;;;;;20.15;2.63;;;10.30;99.90;;;;;;5058282;28;20585;-75
2022/01/30 13:01:44;;;;;;;12.23;2.78;;;10.60;99.90;;;;;;5056602;28;20659;-76
2022/01/30 13:04:15;;;;;;;14.98;3.00;;;10.60;99.90;;;;;;5054111;28;20171;-77
2022/01/30 13:06:50;;;;;;;19.23;3.15;;;10.80;99.90;;;;;;5053575;28;20206;-77
2022/01/30 13:09:21;;;;;;;11.43;2.60;;;10.80;99.90;;;;;;5053600;28;20162;-76
2022/01/30 13:11:46;;;;;;;17.65;4.00;;;10.90;99.90;;;;;;5054032;28;20198;-76
2022/01/30 13:14:12;;;;;;;8.68;1.83;;;11.00;99.90;;;;;;5053820;28;20171;-76
2022/01/30 13:16:42;;;;;;;16.23;3.95;;;10.90;99.90;;;;;;5054017;28;20532;-78
2022/01/30 13:19:11;;;;;;;10.63;3.17;;;10.90;99.90;;;;;;5053790;28;20593;-81
2022/01/30 13:21:38;;;;;;;14.07;3.17;;;10.80;99.90;;;;;;5053672;28;20274;-78
2022/01/30 13:24:05;;;;;;;10.93;2.22;;;11.00;99.90;;;;;;5053834;28;20163;-82
2022/01/30 13:26:35;;;;;;;5.35;2.10;;;10.90;99.90;;;;;;5052987;28;20671;-79
2022/01/30 13:29:02;;;;;;;5.53;2.15;;;10.80;99.90;;;;;;5053263;28;20209;-82
2022/01/30 13:31:31;;;;;;;19.23;2.72;;;10.50;99.90;;;;;;5053130;28;20198;-76
2022/01/30 13:34:16;;;;;;;14.88;2.70;;;10.40;99.90;;;;;;5053250;28;20163;-76
2022/01/30 13:36:53;;;;;;;17.73;2.78;;;10.40;99.90;;;;;;5053504;28;20528;-86
2022/01/30 13:39:25;;;;;;;16.88;2.83;;;10.40;99.90;;;;;;5053315;28;20181;-76
2022/01/30 13:42:01;;;;;;;11.32;3.13;;;10.40;99.90;;;;;;5053100;28;20269;-76
2022/01/30 13:44:50;;;;;;;15.85;2.63;;;10.10;99.90;;;;;;5052977;28;20162;-76